Time;durP1;ratioP1;P1;durP2;ratioP2;P2;SDS_P1;SDS_P2;PMS_P1;PMS_P2;Temp;Humidity;BMP_temperature;BMP_pressure;BME280_temperature;BME280_humidity;BME280_pressure;Samples;Min_cycle;Max_cycle;Signal;HPM_P1;HPM_P2
2021/06/10 00:00:21;;;;;;;5.00;3.67;;;18.20;80.20;;;;;;5085216;27;20616;-83
2021/06/10 00:03:09;;;;;;;5.37;4.50;;;18.20;80.40;;;;;;5090064;28;20246;-84
2021/06/10 00:05:39;;;;;;;5.03;4.53;;;18.20;80.40;;;;;;5090477;28;20440;-82
2021/06/10 00:08:08;;;;;;;4.67;4.27;;;18.30;80.40;;;;;;5102659;28;20478;-84
2021/06/10 00:10:38;;;;;;;4.30;3.90;;;18.20;80.10;;;;;;5088469;28;20463;-83
2021/06/10 00:13:06;;;;;;;5.00;4.50;;;18.10;80.30;;;;;;5087985;28;20216;-83
2021/06/10 00:15:36;;;;;;;4.73;4.03;;;18.10;80.30;;;;;;5090666;28;20254;-83
2021/06/10 00:18:05;;;;;;;6.30;5.00;;;18.10;80.50;;;;;;5111165;28;20287;-85
2021/06/10 00:20:35;;;;;;;5.37;4.50;;;18.10;80.40;;;;;;5110559;27;20298;-85
2021/06/10 00:23:06;;;;;;;4.80;3.87;;;18.00;80.30;;;;;;5098658;28;20239;-84
2021/06/10 00:25:35;;;;;;;3.93;3.57;;;18.00;80.40;;;;;;5090189;28;20231;-83
2021/06/10 00:28:03;;;;;;;4.50;4.03;;;18.00;80.60;;;;;;5091495;28;20208;-84
2021/06/10 00:30:33;;;;;;;4.70;3.80;;;17.90;80.70;;;;;;5089142;28;20535;-82
2021/06/10 00:33:02;;;;;;;5.97;3.70;;;18.00;80.60;;;;;;5096350;28;20208;-82
2021/06/10 00:35:31;;;;;;;4.50;4.10;;;17.90;80.40;;;;;;5092437;28;20238;-85
2021/06/10 00:38:00;;;;;;;4.43;4.03;;;17.90;80.40;;;;;;5086755;28;21071;-83
2021/06/10 00:40:32;;;;;;;4.93;3.93;;;17.90;80.50;;;;;;5095399;28;20200;-83
2021/06/10 00:43:00;;;;;;;4.30;3.90;;;17.90;80.50;;;;;;5077051;28;20227;-83
2021/06/10 00:45:30;;;;;;;5.30;3.70;;;17.90;80.30;;;;;;5095705;28;20211;-82
2021/06/10 00:47:58;;;;;;;4.30;3.90;;;17.90;80.30;;;;;;5095797;28;20207;-83
2021/06/10 00:50:30;;;;;;;4.00;3.63;;;17.90;80.30;;;;;;5101396;28;20200;-82
2021/06/10 00:52:58;;;;;;;4.87;4.07;;;17.90;80.30;;;;;;5101593;28;20208;-82
2021/06/10 00:55:27;;;;;;;4.90;4.40;;;17.90;80.40;;;;;;5094114;28;20201;-84
2021/06/10 00:57:57;;;;;;;4.20;3.87;;;17.80;80.50;;;;;;5094492;28;20459;-84
2021/06/10 01:00:26;;;;;;;5.57;3.90;;;17.80;80.50;;;;;;5108606;28;20279;-83
2021/06/10 01:02:54;;;;;;;4.73;3.90;;;17.80;80.50;;;;;;5104927;27;20231;-84
2021/06/10 01:05:22;;;;;;;4.50;4.10;;;17.70;80.50;;;;;;5097100;28;20204;-84
2021/06/10 01:07:58;;;;;;;3.97;3.67;;;17.70;80.60;;;;;;5091296;28;20215;-82
2021/06/10 01:10:38;;;;;;;4.13;3.83;;;17.60;80.60;;;;;;5086346;28;20708;-82
2021/06/10 01:13:18;;;;;;;5.57;3.67;;;17.70;80.70;;;;;;5089620;28;20203;-82
2021/06/10 01:15:52;;;;;;;5.37;4.13;;;17.60;80.40;;;;;;5100792;28;20204;-83
2021/06/10 01:18:20;;;;;;;4.73;3.90;;;17.60;80.20;;;;;;5095811;28;20213;-83
2021/06/10 01:20:50;;;;;;;6.23;3.83;;;17.50;80.40;;;;;;5095921;28;20377;-81
2021/06/10 01:23:29;;;;;;;5.57;3.87;;;17.60;80.50;;;;;;5101302;28;20678;-85
2021/06/10 01:26:08;;;;;;;5.20;4.20;;;17.60;80.60;;;;;;5096620;27;20666;-83
2021/06/10 01:28:40;;;;;;;4.97;3.90;;;17.50;80.70;;;;;;5095311;28;20300;-85
2021/06/10 01:31:10;;;;;;;4.00;3.70;;;17.50;80.60;;;;;;5093184;28;20200;-83
2021/06/10 01:33:42;;;;;;;5.80;4.10;;;17.50;80.70;;;;;;5099265;28;20239;-83
2021/06/10 01:36:13;;;;;;;4.80;4.23;;;17.40;80.80;;;;;;5103091;28;20232;-83
2021/06/10 01:38:43;;;;;;;5.33;3.70;;;17.40;80.80;;;;;;5100730;28;20211;-86
2021/06/10 01:41:14;;;;;;;6.37;4.30;;;17.40;81.00;;;;;;5102701;28;20204;-84
2021/06/10 01:43:44;;;;;;;4.67;4.27;;;17.30;81.00;;;;;;5090806;28;20657;-84
2021/06/10 01:46:14;;;;;;;4.43;3.97;;;17.30;81.20;;;;;;5091043;28;20212;-81
2021/06/10 01:48:46;;;;;;;4.43;4.03;;;17.20;81.40;;;;;;5086954;28;20215;-83
2021/06/10 01:51:16;;;;;;;4.30;3.90;;;17.10;81.60;;;;;;5087923;27;20219;-86
2021/06/10 01:53:47;;;;;;;4.70;4.30;;;17.00;81.80;;;;;;5090173;28;20287;-83
2021/06/10 01:56:17;;;;;;;4.70;4.20;;;17.00;81.90;;;;;;5093434;27;20201;-82
2021/06/10 01:58:48;;;;;;;5.57;4.67;;;17.00;82.00;;;;;;5095325;28;20925;-82
2021/06/10 02:01:19;;;;;;;4.93;4.50;;;17.00;82.20;;;;;;5095987;28;20566;-84
2021/06/10 02:03:50;;;;;;;5.00;4.60;;;16.90;82.10;;;;;;5094920;27;20224;-84
2021/06/10 02:06:19;;;;;;;5.10;4.53;;;16.90;82.20;;;;;;5108765;27;20212;-85
2021/06/10 02:08:48;;;;;;;6.40;4.40;;;16.90;82.40;;;;;;5116756;27;20218;-84
2021/06/10 02:11:17;;;;;;;5.07;4.67;;;16.90;82.60;;;;;;5116955;27;20177;-85
2021/06/10 02:13:48;;;;;;;5.33;4.83;;;16.80;82.80;;;;;;5113952;27;20852;-84
2021/06/10 02:16:18;;;;;;;8.57;4.90;;;16.80;83.10;;;;;;5087902;28;20693;-84
2021/06/10 02:18:47;;;;;;;6.73;4.53;;;16.70;83.10;;;;;;5104110;28;20283;-85
2021/06/10 02:21:16;;;;;;;6.23;4.90;;;16.60;83.20;;;;;;5111315;28;20304;-83
2021/06/10 02:23:45;;;;;;;7.17;5.20;;;16.60;83.40;;;;;;5112542;28;20242;-84
2021/06/10 02:26:15;;;;;;;6.77;4.97;;;16.60;83.70;;;;;;5113823;27;20192;-85
2021/06/10 02:28:43;;;;;;;7.93;5.07;;;16.60;83.70;;;;;;5104305;28;20241;-81
2021/06/10 02:31:14;;;;;;;5.97;4.90;;;16.60;83.80;;;;;;5101088;28;20192;-86
2021/06/10 02:33:44;;;;;;;5.53;4.93;;;16.50;83.90;;;;;;5093849;28;20208;-86
2021/06/10 02:36:15;;;;;;;5.10;4.70;;;16.50;84.20;;;;;;5097165;28;20311;-84
2021/06/10 02:38:49;;;;;;;6.13;5.53;;;16.40;84.10;;;;;;5091482;28;20200;-84
2021/06/10 02:41:18;;;;;;;5.70;5.10;;;16.30;84.30;;;;;;5087880;28;20281;-83
2021/06/10 02:43:49;;;;;;;6.00;4.80;;;16.30;84.60;;;;;;5090501;28;20665;-85
2021/06/10 02:46:21;;;;;;;5.60;5.10;;;16.30;84.80;;;;;;5092572;28;20329;-84
2021/06/10 02:48:52;;;;;;;6.20;5.37;;;16.30;84.90;;;;;;5088521;28;20523;-84
2021/06/10 02:51:22;;;;;;;7.17;5.80;;;16.30;84.90;;;;;;5092865;28;20299;-82
2021/06/10 02:53:51;;;;;;;8.20;5.70;;;16.30;85.00;;;;;;5084533;28;20519;-84
2021/06/10 02:56:20;;;;;;;6.43;5.83;;;16.40;84.90;;;;;;5087688;28;20530;-81
2021/06/10 02:58:52;;;;;;;6.60;6.00;;;16.40;84.90;;;;;;5085796;28;20211;-82
2021/06/10 03:01:23;;;;;;;6.90;5.80;;;16.40;85.10;;;;;;5099871;28;20208;-85
2021/06/10 03:03:52;;;;;;;6.00;5.50;;;16.40;84.80;;;;;;5103408;27;20220;-82
2021/06/10 03:06:23;;;;;;;6.80;6.10;;;16.50;85.00;;;;;;5100540;28;20220;-82
2021/06/10 03:08:53;;;;;;;6.43;5.50;;;16.40;85.00;;;;;;5100715;28;20196;-83
2021/06/10 03:11:22;;;;;;;6.43;5.83;;;16.40;85.10;;;;;;5105850;28;20192;-84
2021/06/10 03:13:51;;;;;;;6.63;5.87;;;16.40;85.00;;;;;;5099740;28;20620;-82
2021/06/10 03:16:22;;;;;;;8.80;6.30;;;16.40;85.00;;;;;;5092136;28;20226;-82
2021/06/10 03:18:52;;;;;;;8.17;5.80;;;16.40;85.00;;;;;;5088218;28;20751;-84
2021/06/10 03:21:21;;;;;;;5.77;5.27;;;16.30;85.20;;;;;;5101851;28;20196;-83
2021/06/10 03:23:50;;;;;;;8.23;5.43;;;16.30;85.30;;;;;;5103257;27;20231;-83
2021/06/10 03:26:21;;;;;;;7.10;5.53;;;16.20;85.30;;;;;;5100744;28;20214;-84
2021/06/10 03:28:50;;;;;;;6.37;5.77;;;16.20;85.30;;;;;;5100445;28;21274;-84
2021/06/10 03:31:20;;;;;;;6.73;6.00;;;16.20;85.50;;;;;;5103443;28;20212;-85
2021/06/10 03:33:51;;;;;;;7.23;6.13;;;16.20;85.70;;;;;;5099090;27;20207;-82
2021/06/10 03:36:20;;;;;;;7.33;6.23;;;16.10;85.70;;;;;;5100175;28;20310;-84
2021/06/10 03:38:49;;;;;;;6.50;5.80;;;16.10;85.90;;;;;;5096073;28;20268;-84
2021/06/10 03:41:20;;;;;;;6.63;6.03;;;16.10;86.00;;;;;;5087381;28;20206;-82
2021/06/10 03:43:49;;;;;;;9.00;7.00;;;16.10;86.10;;;;;;5081594;28;20405;-83
2021/06/10 03:46:17;;;;;;;9.03;6.63;;;16.00;86.40;;;;;;5084260;28;20232;-82
2021/06/10 03:48:52;;;;;;;7.80;7.00;;;16.00;86.60;;;;;;5088646;28;20208;-82
2021/06/10 03:51:21;;;;;;;7.40;6.70;;;16.00;86.40;;;;;;5086794;28;20203;-85
2021/06/10 03:53:50;;;;;;;7.87;7.07;;;16.00;86.40;;;;;;5087331;28;20221;-83
2021/06/10 03:56:20;;;;;;;7.77;7.07;;;16.10;86.30;;;;;;5088419;28;20911;-84
2021/06/10 03:58:48;;;;;;;7.20;6.50;;;16.10;86.20;;;;;;5088862;28;20215;-82
2021/06/10 04:01:16;;;;;;;7.77;6.97;;;16.20;86.30;;;;;;5095651;28;20257;-84
2021/06/10 04:03:44;;;;;;;7.33;6.50;;;16.10;86.40;;;;;;5099484;28;20300;-82
2021/06/10 04:06:15;;;;;;;8.20;7.10;;;16.10;86.60;;;;;;5097233;28;21117;-82
2021/06/10 04:08:44;;;;;;;7.43;6.73;;;16.20;86.70;;;;;;5095053;28;20220;-82
2021/06/10 04:11:14;;;;;;;7.93;7.13;;;16.20;86.80;;;;;;5093077;28;20299;-85
2021/06/10 04:13:43;;;;;;;7.70;6.97;;;16.30;86.50;;;;;;5076466;28;20216;-85
2021/06/10 04:16:11;;;;;;;9.67;7.20;;;16.30;86.40;;;;;;5100755;28;20611;-84
2021/06/10 04:18:42;;;;;;;10.43;6.90;;;16.30;86.50;;;;;;5099427;28;20219;-82
2021/06/10 04:21:13;;;;;;;7.93;7.13;;;16.30;86.60;;;;;;5091913;28;20532;-87
2021/06/10 04:23:49;;;;;;;9.57;6.90;;;16.40;86.40;;;;;;5094823;28;20239;-85
2021/06/10 04:26:19;;;;;;;8.37;6.90;;;16.50;86.10;;;;;;5108140;28;20211;-85
2021/06/10 04:28:49;;;;;;;7.60;6.70;;;16.60;86.00;;;;;;5105963;28;20295;-84
2021/06/10 04:31:19;;;;;;;8.37;6.73;;;16.80;85.70;;;;;;5098082;28;20208;-84
2021/06/10 04:33:52;;;;;;;7.67;6.87;;;16.90;85.60;;;;;;5088544;28;20847;-85
2021/06/10 04:36:24;;;;;;;9.57;7.10;;;17.10;85.70;;;;;;5092685;28;20684;-85
2021/06/10 04:38:52;;;;;;;7.67;6.80;;;17.30;85.00;;;;;;5100819;28;20200;-85
2021/06/10 04:41:22;;;;;;;6.83;5.93;;;17.30;84.90;;;;;;5111486;28;20176;-85
2021/06/10 04:43:51;;;;;;;8.17;6.70;;;17.40;85.00;;;;;;5087907;28;20224;-85
2021/06/10 04:46:20;;;;;;;8.33;7.13;;;17.50;84.70;;;;;;5110915;27;20199;-84
2021/06/10 04:48:48;;;;;;;8.97;7.27;;;17.50;84.30;;;;;;5103174;28;20195;-83
2021/06/10 04:51:17;;;;;;;9.07;7.07;;;17.40;84.70;;;;;;5098710;28;20220;-83
2021/06/10 04:53:47;;;;;;;6.97;6.27;;;17.50;84.70;;;;;;5090837;28;20329;-85
2021/06/10 04:56:18;;;;;;;9.70;7.30;;;17.50;84.50;;;;;;5090570;28;20211;-83
2021/06/10 04:58:47;;;;;;;9.43;6.80;;;17.60;84.40;;;;;;5102890;27;20228;-84
2021/06/10 05:01:16;;;;;;;9.57;7.17;;;17.60;84.70;;;;;;5086531;28;20215;-86
2021/06/10 05:03:44;;;;;;;11.87;7.10;;;17.60;84.50;;;;;;5108898;28;20244;-87
2021/06/10 05:06:14;;;;;;;8.13;7.07;;;17.70;84.70;;;;;;5104850;27;20285;-85
2021/06/10 05:08:42;;;;;;;9.83;6.80;;;17.80;84.60;;;;;;5113780;28;20200;-84
2021/06/10 05:11:12;;;;;;;8.20;6.90;;;18.10;84.90;;;;;;5113136;27;20210;-84
2021/06/10 05:13:40;;;;;;;7.73;6.93;;;18.20;84.10;;;;;;5114893;27;20236;-84
2021/06/10 05:16:09;;;;;;;7.10;6.40;;;18.40;83.70;;;;;;5107296;27;20250;-83
2021/06/10 05:18:37;;;;;;;9.37;7.20;;;18.50;83.30;;;;;;5083328;28;20204;-85
2021/06/10 05:21:09;;;;;;;7.60;6.80;;;18.60;83.00;;;;;;5106015;27;20877;-86
2021/06/10 05:23:39;;;;;;;9.07;6.80;;;18.60;83.10;;;;;;5105193;27;20235;-85
2021/06/10 05:26:07;;;;;;;8.20;6.57;;;18.60;82.80;;;;;;5081031;28;20817;-84
2021/06/10 05:28:37;;;;;;;7.50;6.07;;;18.50;82.90;;;;;;5108002;27;20436;-83
2021/06/10 05:31:08;;;;;;;7.13;6.43;;;18.50;83.00;;;;;;5086849;28;20203;-84
2021/06/10 05:33:39;;;;;;;7.23;5.90;;;18.70;83.30;;;;;;5083725;28;20771;-85
2021/06/10 05:36:08;;;;;;;7.97;6.20;;;18.80;83.00;;;;;;5101892;27;20210;-85
2021/06/10 05:38:36;;;;;;;8.27;5.80;;;18.80;82.80;;;;;;5104904;27;20645;-83
2021/06/10 05:41:05;;;;;;;7.37;6.13;;;18.90;82.90;;;;;;5103747;27;20502;-85
2021/06/10 05:43:35;;;;;;;8.80;6.67;;;19.10;82.50;;;;;;5119541;27;20287;-86
2021/06/10 05:46:04;;;;;;;7.47;6.57;;;19.10;82.50;;;;;;5103756;27;20450;-86
2021/06/10 05:48:34;;;;;;;9.33;6.10;;;19.30;82.70;;;;;;5104931;27;20636;-84
2021/06/10 05:51:02;;;;;;;7.07;6.00;;;19.40;82.60;;;;;;5099573;27;20610;-84
2021/06/10 05:53:31;;;;;;;8.27;6.77;;;19.40;82.80;;;;;;5098885;28;20936;-83
2021/06/10 05:56:00;;;;;;;7.87;5.73;;;19.40;82.80;;;;;;5084992;28;20288;-85
2021/06/10 05:58:28;;;;;;;8.73;6.23;;;19.40;82.40;;;;;;5100341;27;20324;-84
2021/06/10 06:00:59;;;;;;;7.63;5.87;;;19.50;82.30;;;;;;5090726;28;20839;-84
2021/06/10 06:03:33;;;;;;;8.73;6.10;;;19.60;82.10;;;;;;5090080;27;20408;-84
2021/06/10 06:06:01;;;;;;;7.67;5.80;;;19.80;81.50;;;;;;5091582;28;20219;-84
2021/06/10 06:08:31;;;;;;;6.77;6.10;;;20.00;81.70;;;;;;5094237;27;20214;-84
2021/06/10 06:11:00;;;;;;;11.93;5.90;;;19.80;81.50;;;;;;5095285;27;20207;-85
2021/06/10 06:13:43;;;;;;;7.77;5.90;;;19.80;81.50;;;;;;5097411;27;20212;-83
2021/06/10 06:16:14;;;;;;;8.03;6.47;;;19.70;81.60;;;;;;5094654;27;20242;-84
2021/06/10 06:18:45;;;;;;;7.60;6.00;;;19.80;81.60;;;;;;5092203;27;20234;-84
2021/06/10 06:21:14;;;;;;;8.67;5.70;;;19.80;81.80;;;;;;5092703;27;20452;-85
2021/06/10 06:23:45;;;;;;;6.17;5.50;;;19.90;81.70;;;;;;5104125;27;20242;-84
2021/06/10 06:26:14;;;;;;;7.07;5.50;;;20.00;81.50;;;;;;5112569;27;20209;-87
2021/06/10 06:28:42;;;;;;;6.90;5.47;;;20.30;81.60;;;;;;5115258;27;20290;-85
2021/06/10 06:31:11;;;;;;;6.47;5.23;;;20.60;81.30;;;;;;5096900;27;20199;-86
2021/06/10 06:33:39;;;;;;;5.73;5.13;;;20.80;81.10;;;;;;5104845;27;20232;-84
2021/06/10 06:36:25;;;;;;;7.63;5.50;;;20.80;80.70;;;;;;5122987;27;20560;-86
2021/06/10 06:38:56;;;;;;;5.70;5.20;;;20.80;80.70;;;;;;5084690;27;20403;-85
2021/06/10 06:41:25;;;;;;;5.67;5.17;;;20.50;80.90;;;;;;5087878;27;20574;-86
2021/06/10 06:43:56;;;;;;;8.53;6.00;;;20.30;80.90;;;;;;5089804;27;20279;-85
2021/06/10 06:46:27;;;;;;;8.17;5.47;;;20.30;81.00;;;;;;5085780;27;20203;-85
2021/06/10 06:48:56;;;;;;;10.17;6.07;;;20.40;81.10;;;;;;5072741;27;20268;-86
2021/06/10 06:51:27;;;;;;;6.83;6.17;;;20.60;80.90;;;;;;5095001;27;20348;-83
2021/06/10 06:53:56;;;;;;;7.47;5.90;;;20.70;80.40;;;;;;5089008;27;20324;-88
2021/06/10 06:56:30;;;;;;;15.57;6.43;;;20.70;80.40;;;;;;5083697;27;20242;-88
2021/06/10 06:58:59;;;;;;;9.27;5.90;;;20.70;80.40;;;;;;5071123;27;20299;-86
2021/06/10 07:01:30;;;;;;;7.53;5.53;;;20.90;80.60;;;;;;5080397;27;20794;-86
2021/06/10 07:03:59;;;;;;;7.77;5.50;;;20.90;79.80;;;;;;5085309;27;20227;-85
2021/06/10 07:06:30;;;;;;;7.73;5.57;;;21.00;80.40;;;;;;5093576;27;20590;-86
2021/06/10 07:08:58;;;;;;;7.67;5.67;;;21.30;80.00;;;;;;5098983;27;20238;-87
2021/06/10 07:11:33;;;;;;;6.00;5.40;;;21.40;79.60;;;;;;5087545;27;20208;-85
2021/06/10 07:14:05;;;;;;;8.70;5.90;;;21.50;79.70;;;;;;5054120;27;20463;-85
2021/06/10 07:16:38;;;;;;;8.77;5.60;;;21.60;79.40;;;;;;5035119;27;20576;-90
2021/06/10 07:19:14;;;;;;;6.30;5.70;;;21.60;79.40;;;;;;5028366;27;20275;-85
2021/06/10 07:21:50;;;;;;;5.83;5.00;;;21.70;78.80;;;;;;5029950;27;20429;-87
2021/06/10 07:24:39;;;;;;;6.33;5.47;;;21.70;79.30;;;;;;5050049;27;20230;-83
2021/06/10 07:27:09;;;;;;;6.73;5.47;;;21.40;78.30;;;;;;5092217;27;20636;-85
2021/06/10 07:29:37;;;;;;;5.67;5.17;;;21.40;78.90;;;;;;5097475;27;20212;-87
2021/06/10 07:32:06;;;;;;;8.47;5.60;;;21.50;79.10;;;;;;5089817;27;20207;-87
2021/06/10 07:34:36;;;;;;;5.40;4.50;;;21.70;78.80;;;;;;5079434;27;20277;-83
2021/06/10 07:37:08;;;;;;;5.63;4.60;;;21.70;78.40;;;;;;5100978;27;20280;-85
2021/06/10 07:39:37;;;;;;;6.43;4.50;;;21.80;78.50;;;;;;5100401;27;20238;-86
2021/06/10 07:42:06;;;;;;;7.23;5.37;;;21.80;78.80;;;;;;5097718;27;20215;-87
2021/06/10 07:44:34;;;;;;;7.60;4.90;;;22.00;78.20;;;;;;5100528;27;20223;-86
2021/06/10 07:47:04;;;;;;;6.03;5.10;;;21.90;77.70;;;;;;5097524;27;20200;-88
2021/06/10 07:49:33;;;;;;;7.23;4.40;;;21.90;78.10;;;;;;5097141;27;20208;-86
2021/06/10 07:52:02;;;;;;;5.40;4.10;;;22.00;77.70;;;;;;5093358;27;20207;-84
2021/06/10 07:54:36;;;;;;;5.20;4.80;;;22.00;77.70;;;;;;5094301;27;20561;-88
2021/06/10 07:57:14;;;;;;;7.17;5.10;;;22.10;78.00;;;;;;5081292;27;20686;-86
2021/06/10 07:59:44;;;;;;;5.22;4.60;;;22.20;77.40;;;;;;5099504;27;20952;-86
2021/06/10 08:02:32;;;;;;;6.82;4.80;;;22.30;77.30;;;;;;5097993;27;20251;-86
2021/06/10 08:05:02;;;;;;;6.68;4.40;;;22.30;77.00;;;;;;5101096;27;20677;-87
2021/06/10 08:07:31;;;;;;;4.70;4.30;;;22.40;77.10;;;;;;5107681;27;20200;-85
2021/06/10 08:10:01;;;;;;;6.75;4.53;;;22.40;76.20;;;;;;5104309;27;20633;-83
2021/06/10 08:12:33;;;;;;;5.03;3.83;;;22.40;76.10;;;;;;5092159;27;20906;-84
2021/06/10 08:15:01;;;;;;;4.40;4.00;;;22.40;75.20;;;;;;5092320;27;20531;-82
2021/06/10 08:17:33;;;;;;;4.80;3.95;;;22.40;75.30;;;;;;5086941;27;20239;-84
2021/06/10 08:20:03;;;;;;;4.60;4.07;;;22.20;75.30;;;;;;5095033;27;20199;-85
2021/06/10 08:22:32;;;;;;;3.90;3.60;;;22.00;75.10;;;;;;5094707;27;20218;-83
2021/06/10 08:25:02;;;;;;;5.03;3.67;;;22.10;75.30;;;;;;5106165;27;20327;-84
2021/06/10 08:27:30;;;;;;;4.43;4.07;;;22.30;74.90;;;;;;5100131;27;20221;-87
2021/06/10 08:30:00;;;;;;;4.32;3.92;;;22.40;75.30;;;;;;5094856;27;20203;-86
2021/06/10 08:32:29;;;;;;;4.15;3.75;;;22.60;75.80;;;;;;5066410;27;20590;-84
2021/06/10 08:34:57;;;;;;;4.53;3.88;;;22.80;75.10;;;;;;5088835;27;20529;-82
2021/06/10 08:37:25;;;;;;;5.18;3.78;;;22.90;74.80;;;;;;5089919;27;20780;-85
2021/06/10 08:39:53;;;;;;;6.07;4.07;;;22.90;74.40;;;;;;5095156;27;20204;-85
2021/06/10 08:42:24;;;;;;;5.55;3.97;;;22.90;75.00;;;;;;5092250;27;20199;-87
2021/06/10 08:44:54;;;;;;;4.38;3.55;;;23.00;74.50;;;;;;5084854;27;20253;-83
2021/06/10 08:47:27;;;;;;;5.25;3.30;;;23.00;73.20;;;;;;5092258;27;20207;-84
2021/06/10 08:49:56;;;;;;;5.20;3.65;;;22.90;72.90;;;;;;5093707;27;20724;-86
2021/06/10 08:52:24;;;;;;;4.20;3.78;;;23.10;73.00;;;;;;5107631;27;20219;-84
2021/06/10 08:54:53;;;;;;;3.63;3.33;;;23.10;72.90;;;;;;5113550;27;20193;-82
2021/06/10 08:57:22;;;;;;;4.82;3.63;;;23.00;73.10;;;;;;5073387;28;20641;-85
2021/06/10 08:59:51;;;;;;;4.20;3.83;;;23.00;72.90;;;;;;5091123;27;20207;-83
2021/06/10 09:02:20;;;;;;;3.90;3.15;;;23.10;72.10;;;;;;5105170;27;20200;-84
2021/06/10 09:04:49;;;;;;;3.45;3.15;;;23.00;72.00;;;;;;5095997;27;20219;-84
2021/06/10 09:07:27;;;;;;;3.08;2.80;;;23.00;71.40;;;;;;5100551;27;20203;-84
2021/06/10 09:09:57;;;;;;;3.08;2.85;;;23.20;71.00;;;;;;5099396;27;20203;-87
2021/06/10 09:12:26;;;;;;;3.65;3.35;;;23.40;70.60;;;;;;5089196;27;20202;-83
2021/06/10 09:14:57;;;;;;;3.63;2.80;;;23.40;69.50;;;;;;5091433;27;20240;-85
2021/06/10 09:17:30;;;;;;;3.53;2.70;;;23.10;69.20;;;;;;5071288;28;20203;-84
2021/06/10 09:19:59;;;;;;;3.03;2.78;;;22.70;69.20;;;;;;5088620;27;20199;-83
2021/06/10 09:22:42;;;;;;;2.53;2.35;;;22.80;69.40;;;;;;5088040;28;20638;-85
2021/06/10 09:25:12;;;;;;;4.50;3.00;;;23.00;70.30;;;;;;5093335;27;20631;-84
2021/06/10 09:27:53;;;;;;;6.50;3.00;;;23.20;69.30;;;;;;5090445;27;20745;-86
2021/06/10 09:30:30;;;;;;;3.40;3.13;;;23.30;69.20;;;;;;5084566;27;20332;-85
2021/06/10 09:33:00;;;;;;;3.65;3.35;;;23.50;69.40;;;;;;5079564;28;20256;-83
2021/06/10 09:35:32;;;;;;;3.42;3.08;;;23.40;70.30;;;;;;5106365;27;20191;-82
2021/06/10 09:38:06;;;;;;;5.30;3.45;;;23.30;70.40;;;;;;5092722;28;20189;-85
2021/06/10 09:40:35;;;;;;;5.35;3.13;;;23.30;70.90;;;;;;5089280;27;20307;-87
2021/06/10 09:43:09;;;;;;;3.83;3.50;;;23.30;70.30;;;;;;5090549;27;20812;-84
2021/06/10 09:45:41;;;;;;;3.65;3.35;;;23.30;71.10;;;;;;5099873;27;20232;-82
2021/06/10 09:48:10;;;;;;;5.25;3.53;;;23.50;69.50;;;;;;5089096;27;20665;-87
2021/06/10 09:50:42;;;;;;;5.40;2.92;;;23.40;69.50;;;;;;5098509;27;20208;-87
2021/06/10 09:53:16;;;;;;;4.13;2.90;;;23.50;69.60;;;;;;5090921;27;20709;-86
2021/06/10 09:55:46;;;;;;;4.00;3.20;;;23.80;69.20;;;;;;5098871;27;20748;-87
2021/06/10 09:58:39;;;;;;;4.28;2.83;;;24.00;69.60;;;;;;5093482;27;20525;-85
2021/06/10 10:01:11;;;;;;;3.65;3.03;;;23.80;69.80;;;;;;5092477;27;20454;-89
2021/06/10 10:03:42;;;;;;;3.65;2.90;;;23.60;69.40;;;;;;5100625;27;20211;-85
2021/06/10 10:06:17;;;;;;;3.40;2.75;;;23.30;68.10;;;;;;5091888;27;20297;-85
2021/06/10 10:08:48;;;;;;;4.15;2.58;;;23.20;67.40;;;;;;5087155;27;20902;-83
2021/06/10 10:11:17;;;;;;;2.78;2.50;;;23.30;66.80;;;;;;5104537;27;20203;-83
2021/06/10 10:13:49;;;;;;;3.20;2.75;;;23.40;67.00;;;;;;5118770;27;20621;-82
2021/06/10 10:16:22;;;;;;;2.60;2.40;;;23.50;66.80;;;;;;5117438;27;20196;-85
2021/06/10 10:18:51;;;;;;;2.63;2.33;;;23.70;67.10;;;;;;5112922;27;20195;-83
2021/06/10 10:21:26;;;;;;;2.65;2.40;;;23.80;68.20;;;;;;5112471;27;20712;-84
2021/06/10 10:23:59;;;;;;;3.13;2.67;;;23.90;67.90;;;;;;5109956;27;20251;-84
2021/06/10 10:26:28;;;;;;;2.70;2.50;;;23.70;67.10;;;;;;5091924;27;20238;-83
2021/06/10 10:28:59;;;;;;;4.80;2.83;;;23.50;66.60;;;;;;5127550;27;20198;-83
2021/06/10 10:31:28;;;;;;;2.78;2.58;;;23.40;67.30;;;;;;5107961;27;20283;-84
2021/06/10 10:33:57;;;;;;;4.05;3.15;;;23.30;67.50;;;;;;5097716;27;20265;-86
2021/06/10 10:36:28;;;;;;;4.13;2.85;;;23.20;67.50;;;;;;5091365;27;20836;-87
2021/06/10 10:39:01;;;;;;;5.13;2.90;;;23.00;67.30;;;;;;5100190;27;20191;-86
2021/06/10 10:41:31;;;;;;;2.75;2.55;;;23.00;66.90;;;;;;5081887;27;20196;-84
2021/06/10 10:44:10;;;;;;;6.28;2.80;;;23.10;67.20;;;;;;5096550;27;20327;-85
2021/06/10 10:46:39;;;;;;;3.83;2.85;;;23.30;67.60;;;;;;5102793;27;20263;-87
2021/06/10 10:49:21;;;;;;;2.95;2.75;;;23.50;67.70;;;;;;5105222;27;20262;-86
2021/06/10 10:51:50;;;;;;;3.88;3.05;;;23.80;66.90;;;;;;5112782;27;20207;-84
2021/06/10 10:54:33;;;;;;;3.22;2.67;;;24.10;66.40;;;;;;5098487;27;20958;-87
2021/06/10 10:57:03;;;;;;;2.75;2.50;;;24.00;66.60;;;;;;5071908;27;20229;-84
2021/06/10 10:59:49;;;;;;;4.28;2.50;;;24.00;66.00;;;;;;5092217;27;20303;-83
2021/06/10 11:02:20;;;;;;;3.13;2.33;;;23.90;65.10;;;;;;5089336;27;20567;-85
2021/06/10 11:04:56;;;;;;;3.88;2.65;;;23.90;64.90;;;;;;5093082;27;20266;-83
2021/06/10 11:07:53;;;;;;;4.72;2.78;;;24.00;65.00;;;;;;5102169;27;20235;-83
2021/06/10 11:11:00;;;;;;;3.50;2.67;;;24.10;65.20;;;;;;5107233;27;20436;-86
2021/06/10 11:13:44;;;;;;;4.05;2.72;;;24.20;64.40;;;;;;5090207;27;20668;-83
2021/06/10 11:16:15;;;;;;;3.22;2.50;;;24.20;65.10;;;;;;5093441;27;20964;-82
2021/06/10 11:18:52;;;;;;;2.53;2.33;;;24.40;64.70;;;;;;5089287;27;20207;-86
2021/06/10 11:21:52;;;;;;;2.63;2.45;;;24.50;64.10;;;;;;5091733;27;20208;-82
2021/06/10 11:24:23;;;;;;;2.63;2.42;;;24.40;64.40;;;;;;5104473;27;20196;-82
2021/06/10 11:26:59;;;;;;;3.03;2.53;;;24.30;64.60;;;;;;5106448;27;20447;-85
2021/06/10 11:29:29;;;;;;;2.70;2.50;;;24.30;64.10;;;;;;5094556;27;20210;-85
2021/06/10 11:32:27;;;;;;;2.90;2.70;;;24.20;63.80;;;;;;5079504;27;20429;-81
2021/06/10 11:34:57;;;;;;;3.28;2.53;;;24.10;64.10;;;;;;5089763;27;20672;-85
2021/06/10 11:37:27;;;;;;;2.90;2.65;;;23.90;64.30;;;;;;5110807;27;20206;-85
2021/06/10 11:39:56;;;;;;;2.80;2.50;;;23.80;64.00;;;;;;5091792;27;20420;-83
2021/06/10 11:42:24;;;;;;;2.75;2.20;;;23.80;63.80;;;;;;5088313;27;20200;-84
2021/06/10 11:44:55;;;;;;;3.80;2.63;;;23.80;63.60;;;;;;5079475;27;20245;-82
2021/06/10 11:47:34;;;;;;;3.13;2.72;;;24.00;64.60;;;;;;5074942;27;20287;-84
2021/06/10 11:50:23;;;;;;;6.32;2.47;;;24.30;64.20;;;;;;5082608;27;20325;-84
2021/06/10 11:52:53;;;;;;;2.88;2.60;;;24.80;63.40;;;;;;5085576;27;20206;-85
2021/06/10 12:01:24;;;;;;;3.13;2.50;;;24.60;63.60;;;;;;5084597;27;20212;-85
2021/06/10 12:03:54;;;;;;;2.65;2.45;;;24.50;63.10;;;;;;5101262;27;20294;-83
2021/06/10 12:06:22;;;;;;;3.58;2.50;;;24.50;63.50;;;;;;5109328;27;20297;-85
2021/06/10 12:08:51;;;;;;;2.88;2.35;;;24.70;63.00;;;;;;5116636;27;20199;-84
2021/06/10 12:11:24;;;;;;;4.57;2.58;;;24.60;62.50;;;;;;5110880;27;20573;-85
2021/06/10 12:13:58;;;;;;;4.28;2.60;;;24.50;61.90;;;;;;5110318;27;20199;-87
2021/06/10 12:16:37;;;;;;;2.97;2.38;;;24.70;61.90;;;;;;5107636;27;20664;-88
2021/06/10 12:19:17;;;;;;;2.60;2.40;;;24.90;62.20;;;;;;5111412;27;20203;-87
2021/06/10 12:21:45;;;;;;;3.20;2.40;;;25.20;61.80;;;;;;5112705;27;20211;-85
2021/06/10 12:24:42;;;;;;;3.95;2.30;;;25.40;62.40;;;;;;5107884;27;20748;-86
2021/06/10 12:27:17;;;;;;;3.20;2.58;;;25.60;61.50;;;;;;5073953;27;20658;-87
2021/06/10 12:29:50;;;;;;;3.28;2.45;;;25.60;61.90;;;;;;5103915;27;20613;-85
2021/06/10 12:32:26;;;;;;;3.65;2.58;;;25.70;61.10;;;;;;5106550;27;20499;-89
2021/06/10 12:35:18;;;;;;;3.05;2.63;;;25.40;60.50;;;;;;5109930;27;20195;-88
2021/06/10 12:37:59;;;;;;;2.60;2.40;;;24.70;60.90;;;;;;5112251;27;20712;-84
2021/06/10 12:44:22;;;;;;;3.03;2.72;;;25.10;61.40;;;;;;5119053;27;20227;-90
2021/06/10 12:46:53;;;;;;;3.08;2.40;;;25.80;61.30;;;;;;5108247;27;20898;-85
2021/06/10 12:49:23;;;;;;;3.53;2.50;;;25.90;60.30;;;;;;5088040;27;20207;-85
2021/06/10 12:51:54;;;;;;;2.80;2.60;;;25.80;60.50;;;;;;5088258;27;20203;-87
2021/06/10 12:54:40;;;;;;;2.72;2.53;;;25.80;60.00;;;;;;5093839;27;20328;-86
2021/06/10 12:57:22;;;;;;;2.45;2.25;;;26.00;60.60;;;;;;5086570;27;20206;-82
2021/06/10 12:59:53;;;;;;;3.55;2.40;;;26.40;58.80;;;;;;5095371;27;20203;-83
2021/06/10 13:02:22;;;;;;;2.55;2.28;;;26.70;59.90;;;;;;5090652;27;20635;-84
2021/06/10 13:04:53;;;;;;;3.65;2.50;;;26.70;58.80;;;;;;5113009;27;20184;-82
2021/06/10 13:07:31;;;;;;;2.90;2.70;;;26.40;58.60;;;;;;5103396;27;20230;-81
2021/06/10 13:10:02;;;;;;;2.42;2.28;;;26.00;59.20;;;;;;5095239;27;20190;-84
2021/06/10 13:12:32;;;;;;;3.55;2.55;;;25.50;58.50;;;;;;5087706;27;20458;-87
2021/06/10 13:15:13;;;;;;;2.50;2.30;;;25.60;59.80;;;;;;5087996;27;20757;-83
2021/06/10 13:17:50;;;;;;;3.10;2.40;;;25.90;59.70;;;;;;5091928;27;20254;-82